sensor_id;sensor_type;location;lat;lon;timestamp;pressure;altitude;pressure_sealevel;temperature;humidity
73516;BME280;61763;51.416;5.442;2023-07-20T00:01:14;101309.38;;;14.85;100.00
73516;BME280;61763;51.416;5.442;2023-07-20T00:03:39;101315.78;;;14.84;100.00
73516;BME280;61763;51.416;5.442;2023-07-20T00:06:05;101320.63;;;14.79;100.00
73516;BME280;61763;51.416;5.442;2023-07-20T00:08:30;101315.84;;;14.68;100.00
73516;BME280;61763;51.416;5.442;2023-07-20T00:10:56;101312.66;;;14.60;100.00
73516;BME280;61763;51.416;5.442;2023-07-20T00:13:21;101315.25;;;14.47;100.00
73516;BME280;61763;51.416;5.442;2023-07-20T00:15:47;101319.78;;;14.47;100.00
73516;BME280;61763;51.416;5.442;2023-07-20T00:18:13;101316.69;;;14.39;100.00
73516;BME280;61763;51.416;5.442;2023-07-20T00:20:38;101318.16;;;14.44;100.00
73516;BME280;61763;51.416;5.442;2023-07-20T00:23:04;101320.63;;;14.33;100.00
73516;BME280;61763;51.416;5.442;2023-07-20T00:25:29;101322.81;;;14.26;100.00
73516;BME280;61763;51.416;5.442;2023-07-20T00:27:55;101317.75;;;14.20;100.00
73516;BME280;61763;51.416;5.442;2023-07-20T00:30:20;101320.72;;;14.15;100.00
73516;BME280;61763;51.416;5.442;2023-07-20T00:32:46;101320.47;;;14.04;100.00
73516;BME280;61763;51.416;5.442;2023-07-20T00:35:11;101320.13;;;13.94;100.00
73516;BME280;61763;51.416;5.442;2023-07-20T00:37:38;101320.28;;;13.91;100.00
73516;BME280;61763;51.416;5.442;2023-07-20T00:40:04;101318.88;;;14.00;100.00
73516;BME280;61763;51.416;5.442;2023-07-20T00:42:31;101318.38;;;13.93;100.00
73516;BME280;61763;51.416;5.442;2023-07-20T00:44:56;101322.59;;;13.99;100.00
73516;BME280;61763;51.416;5.442;2023-07-20T00:47:22;101323.09;;;13.90;100.00
73516;BME280;61763;51.416;5.442;2023-07-20T00:49:48;101317.66;;;13.90;100.00
73516;BME280;61763;51.416;5.442;2023-07-20T00:52:15;101330.81;;;13.81;100.00
73516;BME280;61763;51.416;5.442;2023-07-20T00:54:41;101320.38;;;13.74;100.00
73516;BME280;61763;51.416;5.442;2023-07-20T00:57:07;101325.47;;;13.80;100.00
73516;BME280;61763;51.416;5.442;2023-07-20T00:59:34;101327.63;;;13.73;100.00
73516;BME280;61763;51.416;5.442;2023-07-20T01:01:59;101328.84;;;13.67;100.00
73516;BME280;61763;51.416;5.442;2023-07-20T01:04:25;101329.44;;;13.57;100.00
73516;BME280;61763;51.416;5.442;2023-07-20T01:09:44;101330.16;;;13.60;100.00
73516;BME280;61763;51.416;5.442;2023-07-20T01:12:20;101342.16;;;13.56;100.00
73516;BME280;61763;51.416;5.442;2023-07-20T01:14:48;101342.91;;;13.58;100.00
73516;BME280;61763;51.416;5.442;2023-07-20T01:17:14;101345.13;;;13.52;100.00
73516;BME280;61763;51.416;5.442;2023-07-20T01:19:39;101341.06;;;13.43;100.00
73516;BME280;61763;51.416;5.442;2023-07-20T01:22:24;101344.16;;;13.35;100.00
73516;BME280;61763;51.416;5.442;2023-07-20T01:33:07;101342.66;;;13.63;100.00
73516;BME280;61763;51.416;5.442;2023-07-20T01:35:34;101341.88;;;13.61;100.00
73516;BME280;61763;51.416;5.442;2023-07-20T01:38:01;101337.06;;;13.50;100.00
73516;BME280;61763;51.416;5.442;2023-07-20T01:40:27;101338.72;;;13.53;100.00
73516;BME280;61763;51.416;5.442;2023-07-20T01:42:53;101340.72;;;13.49;100.00
73516;BME280;61763;51.416;5.442;2023-07-20T01:45:19;101341.41;;;13.53;100.00
73516;BME280;61763;51.416;5.442;2023-07-20T01:47:45;101352.59;;;13.46;100.00
73516;BME280;61763;51.416;5.442;2023-07-20T01:50:10;101346.94;;;13.51;100.00
73516;BME280;61763;51.416;5.442;2023-07-20T01:52:37;101349.06;;;13.62;100.00
73516;BME280;61763;51.416;5.442;2023-07-20T01:55:03;101353.09;;;13.71;100.00
73516;BME280;61763;51.416;5.442;2023-07-20T01:57:30;101356.72;;;13.87;100.00
73516;BME280;61763;51.416;5.442;2023-07-20T01:59:55;101348.31;;;14.08;100.00
73516;BME280;61763;51.416;5.442;2023-07-20T02:02:20;101355.25;;;14.13;100.00
73516;BME280;61763;51.416;5.442;2023-07-20T02:04:46;101351.28;;;14.19;100.00
73516;BME280;61763;51.416;5.442;2023-07-20T02:07:12;101351.09;;;14.22;100.00
73516;BME280;61763;51.416;5.442;2023-07-20T02:09:37;101348.38;;;14.22;100.00
73516;BME280;61763;51.416;5.442;2023-07-20T02:12:02;101356.38;;;14.25;100.00
73516;BME280;61763;51.416;5.442;2023-07-20T02:14:28;101349.88;;;14.28;100.00
73516;BME280;61763;51.416;5.442;2023-07-20T02:16:54;101351.25;;;14.35;100.00
73516;BME280;61763;51.416;5.442;2023-07-20T02:19:24;101349.16;;;14.40;100.00
73516;BME280;61763;51.416;5.442;2023-07-20T02:21:50;101349.47;;;14.50;100.00
73516;BME280;61763;51.416;5.442;2023-07-20T02:24:15;101360.06;;;14.54;100.00
73516;BME280;61763;51.416;5.442;2023-07-20T02:26:41;101348.16;;;14.57;100.00
73516;BME280;61763;51.416;5.442;2023-07-20T02:29:06;101346.09;;;14.62;100.00
73516;BME280;61763;51.416;5.442;2023-07-20T02:31:33;101344.16;;;14.64;100.00
73516;BME280;61763;51.416;5.442;2023-07-20T02:33:58;101349.69;;;14.63;100.00
73516;BME280;61763;51.416;5.442;2023-07-20T02:36:24;101348.81;;;14.62;100.00
73516;BME280;61763;51.416;5.442;2023-07-20T02:38:50;101356.88;;;14.64;100.00
73516;BME280;61763;51.416;5.442;2023-07-20T02:41:16;101354.16;;;14.64;100.00
73516;BME280;61763;51.416;5.442;2023-07-20T02:43:42;101364.13;;;14.63;100.00
73516;BME280;61763;51.416;5.442;2023-07-20T02:46:07;101365.69;;;14.67;100.00
73516;BME280;61763;51.416;5.442;2023-07-20T02:48:32;101367.56;;;14.67;100.00
73516;BME280;61763;51.416;5.442;2023-07-20T02:50:58;101363.06;;;14.66;100.00
73516;BME280;61763;51.416;5.442;2023-07-20T02:53:23;101372.19;;;14.65;100.00
73516;BME280;61763;51.416;5.442;2023-07-20T02:55:48;101376.66;;;14.66;100.00
73516;BME280;61763;51.416;5.442;2023-07-20T02:58:14;101372.03;;;14.68;100.00
73516;BME280;61763;51.416;5.442;2023-07-20T03:00:42;101388.31;;;14.68;100.00
73516;BME280;61763;51.416;5.442;2023-07-20T03:03:07;101384.72;;;14.67;100.00
73516;BME280;61763;51.416;5.442;2023-07-20T03:05:35;101388.25;;;14.69;100.00
73516;BME280;61763;51.416;5.442;2023-07-20T03:08:00;101381.81;;;14.70;100.00
73516;BME280;61763;51.416;5.442;2023-07-20T03:10:27;101387.34;;;14.69;100.00
73516;BME280;61763;51.416;5.442;2023-07-20T03:12:53;101384.81;;;14.66;100.00
73516;BME280;61763;51.416;5.442;2023-07-20T03:15:18;101391.19;;;14.65;100.00
73516;BME280;61763;51.416;5.442;2023-07-20T03:17:44;101403.63;;;14.69;100.00
73516;BME280;61763;51.416;5.442;2023-07-20T03:20:10;101394.44;;;14.71;100.00
73516;BME280;61763;51.416;5.442;2023-07-20T03:22:36;101400.56;;;14.75;100.00
73516;BME280;61763;51.416;5.442;2023-07-20T03:25:01;101396.97;;;14.75;100.00
73516;BME280;61763;51.416;5.442;2023-07-20T03:27:27;101394.25;;;14.75;100.00
73516;BME280;61763;51.416;5.442;2023-07-20T03:29:54;101390.59;;;14.76;100.00
73516;BME280;61763;51.416;5.442;2023-07-20T03:32:20;101394.06;;;14.78;100.00
73516;BME280;61763;51.416;5.442;2023-07-20T03:34:46;101392.25;;;14.78;100.00
73516;BME280;61763;51.416;5.442;2023-07-20T03:37:12;101392.06;;;14.81;100.00
73516;BME280;61763;51.416;5.442;2023-07-20T03:39:38;101392.06;;;14.81;100.00
73516;BME280;61763;51.416;5.442;2023-07-20T03:42:03;101396.69;;;14.79;100.00
73516;BME280;61763;51.416;5.442;2023-07-20T03:44:30;101401.19;;;14.80;100.00
73516;BME280;61763;51.416;5.442;2023-07-20T03:46:56;101407.47;;;14.81;100.00
73516;BME280;61763;51.416;5.442;2023-07-20T03:49:21;101403.22;;;14.77;100.00
73516;BME280;61763;51.416;5.442;2023-07-20T03:51:46;101407.06;;;14.73;100.00
73516;BME280;61763;51.416;5.442;2023-07-20T03:54:12;101418.81;;;14.73;100.00
73516;BME280;61763;51.416;5.442;2023-07-20T03:56:37;101408.69;;;14.75;100.00
73516;BME280;61763;51.416;5.442;2023-07-20T03:59:02;101409.88;;;14.71;100.00
73516;BME280;61763;51.416;5.442;2023-07-20T04:01:31;101409.97;;;14.69;100.00
73516;BME280;61763;51.416;5.442;2023-07-20T04:04:02;101412.78;;;14.68;100.00
73516;BME280;61763;51.416;5.442;2023-07-20T04:06:27;101413.56;;;14.70;100.00
73516;BME280;61763;51.416;5.442;2023-07-20T04:08:52;101405.94;;;14.77;100.00
73516;BME280;61763;51.416;5.442;2023-07-20T04:11:18;101409.31;;;14.80;100.00
73516;BME280;61763;51.416;5.442;2023-07-20T04:13:43;101403.63;;;14.85;100.00
73516;BME280;61763;51.416;5.442;2023-07-20T04:16:08;101413.44;;;14.87;100.00
73516;BME280;61763;51.416;5.442;2023-07-20T04:18:34;101406.75;;;14.93;100.00
73516;BME280;61763;51.416;5.442;2023-07-20T04:20:59;101398.41;;;14.96;100.00
73516;BME280;61763;51.416;5.442;2023-07-20T04:23:25;101401.81;;;15.00;100.00
73516;BME280;61763;51.416;5.442;2023-07-20T04:25:51;101403.19;;;15.07;100.00
73516;BME280;61763;51.416;5.442;2023-07-20T04:28:17;101398.19;;;15.15;100.00
73516;BME280;61763;51.416;5.442;2023-07-20T04:30:42;101405.59;;;15.28;100.00
73516;BME280;61763;51.416;5.442;2023-07-20T04:33:08;101411.34;;;15.37;100.00
73516;BME280;61763;51.416;5.442;2023-07-20T04:35:52;101408.03;;;15.47;100.00
73516;BME280;61763;51.416;5.442;2023-07-20T04:38:18;101407.34;;;15.57;100.00
73516;BME280;61763;51.416;5.442;2023-07-20T04:40:45;101404.53;;;15.59;100.00
73516;BME280;61763;51.416;5.442;2023-07-20T04:43:12;101407.47;;;15.56;100.00
73516;BME280;61763;51.416;5.442;2023-07-20T04:45:37;101411.47;;;15.50;100.00
73516;BME280;61763;51.416;5.442;2023-07-20T04:48:03;101402.28;;;15.37;100.00
73516;BME280;61763;51.416;5.442;2023-07-20T04:50:28;101401.09;;;15.27;100.00
73516;BME280;61763;51.416;5.442;2023-07-20T04:52:53;101399.13;;;15.14;100.00
73516;BME280;61763;51.416;5.442;2023-07-20T04:55:19;101400.47;;;15.07;100.00
73516;BME280;61763;51.416;5.442;2023-07-20T04:57:44;101396.47;;;14.98;100.00
73516;BME280;61763;51.416;5.442;2023-07-20T05:00:10;101402.19;;;14.94;100.00
73516;BME280;61763;51.416;5.442;2023-07-20T05:02:39;101402.38;;;14.91;100.00
73516;BME280;61763;51.416;5.442;2023-07-20T05:05:05;101406.34;;;14.85;100.00
73516;BME280;61763;51.416;5.442;2023-07-20T05:07:31;101403.03;;;14.80;100.00
73516;BME280;61763;51.416;5.442;2023-07-20T05:09:56;101404.94;;;14.78;100.00
73516;BME280;61763;51.416;5.442;2023-07-20T05:12:22;101403.47;;;14.72;100.00
73516;BME280;61763;51.416;5.442;2023-07-20T05:14:47;101401.91;;;14.68;100.00
73516;BME280;61763;51.416;5.442;2023-07-20T05:17:13;101400.91;;;14.69;100.00
73516;BME280;61763;51.416;5.442;2023-07-20T05:19:38;101408.03;;;14.71;100.00
73516;BME280;61763;51.416;5.442;2023-07-20T05:22:03;101400.84;;;14.70;100.00
73516;BME280;61763;51.416;5.442;2023-07-20T05:24:30;101408.97;;;14.70;100.00
73516;BME280;61763;51.416;5.442;2023-07-20T05:26:58;101413.91;;;14.80;100.00
73516;BME280;61763;51.416;5.442;2023-07-20T05:29:23;101407.91;;;14.89;100.00
73516;BME280;61763;51.416;5.442;2023-07-20T05:31:49;101401.72;;;15.01;100.00
73516;BME280;61763;51.416;5.442;2023-07-20T05:34:14;101409.44;;;15.09;100.00
73516;BME280;61763;51.416;5.442;2023-07-20T05:36:40;101409.16;;;15.14;100.00
73516;BME280;61763;51.416;5.442;2023-07-20T05:39:05;101411.03;;;15.28;100.00
73516;BME280;61763;51.416;5.442;2023-07-20T05:41:31;101413.16;;;15.37;100.00
73516;BME280;61763;51.416;5.442;2023-07-20T05:43:57;101416.41;;;15.44;100.00
73516;BME280;61763;51.416;5.442;2023-07-20T05:46:22;101423.59;;;15.45;100.00
73516;BME280;61763;51.416;5.442;2023-07-20T05:48:49;101424.78;;;15.55;100.00
73516;BME280;61763;51.416;5.442;2023-07-20T05:51:14;101422.94;;;15.70;100.00
73516;BME280;61763;51.416;5.442;2023-07-20T05:53:40;101426.06;;;15.92;100.00
73516;BME280;61763;51.416;5.442;2023-07-20T05:56:06;101424.88;;;16.25;100.00
73516;BME280;61763;51.416;5.442;2023-07-20T05:58:35;101412.56;;;16.47;100.00
73516;BME280;61763;51.416;5.442;2023-07-20T06:01:00;101413.59;;;16.59;100.00
73516;BME280;61763;51.416;5.442;2023-07-20T06:03:28;101406.44;;;16.71;100.00
73516;BME280;61763;51.416;5.442;2023-07-20T06:06:01;101418.34;;;16.70;100.00
73516;BME280;61763;51.416;5.442;2023-07-20T06:08:37;101421.00;;;16.57;100.00
73516;BME280;61763;51.416;5.442;2023-07-20T06:11:02;101415.66;;;16.55;100.00
73516;BME280;61763;51.416;5.442;2023-07-20T06:13:28;101417.34;;;16.71;100.00
73516;BME280;61763;51.416;5.442;2023-07-20T06:15:53;101427.44;;;16.83;100.00
73516;BME280;61763;51.416;5.442;2023-07-20T06:18:18;101428.72;;;16.92;100.00
73516;BME280;61763;51.416;5.442;2023-07-20T06:20:52;101434.69;;;16.97;100.00
73516;BME280;61763;51.416;5.442;2023-07-20T06:23:18;101432.56;;;17.02;100.00
73516;BME280;61763;51.416;5.442;2023-07-20T06:25:44;101431.81;;;17.13;100.00
73516;BME280;61763;51.416;5.442;2023-07-20T06:28:10;101438.22;;;17.12;100.00
73516;BME280;61763;51.416;5.442;2023-07-20T06:30:35;101430.84;;;17.27;100.00
73516;BME280;61763;51.416;5.442;2023-07-20T06:33:00;101421.16;;;17.48;100.00
73516;BME280;61763;51.416;5.442;2023-07-20T06:35:26;101421.63;;;17.55;100.00
73516;BME280;61763;51.416;5.442;2023-07-20T06:37:51;101422.56;;;17.41;100.00
73516;BME280;61763;51.416;5.442;2023-07-20T06:40:17;101428.78;;;17.30;100.00
73516;BME280;61763;51.416;5.442;2023-07-20T06:42:51;101419.41;;;17.34;100.00
73516;BME280;61763;51.416;5.442;2023-07-20T06:45:16;101422.22;;;17.20;100.00
73516;BME280;61763;51.416;5.442;2023-07-20T06:47:41;101422.88;;;17.24;100.00
73516;BME280;61763;51.416;5.442;2023-07-20T06:50:08;101419.84;;;17.41;100.00
73516;BME280;61763;51.416;5.442;2023-07-20T06:52:34;101422.59;;;17.67;100.00
73516;BME280;61763;51.416;5.442;2023-07-20T06:55:00;101420.28;;;17.74;100.00
73516;BME280;61763;51.416;5.442;2023-07-20T06:57:26;101420.09;;;17.64;100.00
73516;BME280;61763;51.416;5.442;2023-07-20T06:59:51;101433.16;;;17.59;100.00
73516;BME280;61763;51.416;5.442;2023-07-20T07:02:17;101439.72;;;17.43;100.00
73516;BME280;61763;51.416;5.442;2023-07-20T07:04:42;101434.91;;;17.47;100.00
73516;BME280;61763;51.416;5.442;2023-07-20T07:07:08;101434.38;;;17.55;100.00
73516;BME280;61763;51.416;5.442;2023-07-20T07:09:34;101442.22;;;17.59;100.00
73516;BME280;61763;51.416;5.442;2023-07-20T07:12:01;101439.50;;;17.72;100.00
73516;BME280;61763;51.416;5.442;2023-07-20T07:14:26;101444.97;;;17.85;100.00
73516;BME280;61763;51.416;5.442;2023-07-20T07:16:52;101450.75;;;17.80;100.00
73516;BME280;61763;51.416;5.442;2023-07-20T07:19:17;101451.88;;;17.91;100.00
73516;BME280;61763;51.416;5.442;2023-07-20T07:21:45;101447.69;;;18.11;100.00
73516;BME280;61763;51.416;5.442;2023-07-20T07:24:11;101448.53;;;18.37;100.00
73516;BME280;61763;51.416;5.442;2023-07-20T07:26:36;101441.88;;;18.28;100.00
73516;BME280;61763;51.416;5.442;2023-07-20T07:29:03;101444.59;;;18.28;100.00
73516;BME280;61763;51.416;5.442;2023-07-20T07:31:29;101439.56;;;18.48;100.00
73516;BME280;61763;51.416;5.442;2023-07-20T07:33:58;101436.19;;;18.68;100.00
73516;BME280;61763;51.416;5.442;2023-07-20T07:36:23;101438.19;;;18.53;100.00
73516;BME280;61763;51.416;5.442;2023-07-20T07:38:50;101445.56;;;18.77;100.00
73516;BME280;61763;51.416;5.442;2023-07-20T07:41:15;101444.72;;;18.64;100.00
73516;BME280;61763;51.416;5.442;2023-07-20T07:43:42;101444.59;;;19.02;100.00
73516;BME280;61763;51.416;5.442;2023-07-20T07:46:08;101446.53;;;19.24;100.00
73516;BME280;61763;51.416;5.442;2023-07-20T07:48:33;101447.09;;;19.05;100.00
73516;BME280;61763;51.416;5.442;2023-07-20T07:50:59;101445.16;;;18.95;100.00
73516;BME280;61763;51.416;5.442;2023-07-20T07:53:24;101452.94;;;19.12;100.00
73516;BME280;61763;51.416;5.442;2023-07-20T07:55:51;101452.03;;;19.71;100.00
73516;BME280;61763;51.416;5.442;2023-07-20T07:58:17;101454.91;;;20.15;100.00
73516;BME280;61763;51.416;5.442;2023-07-20T08:00:42;101452.91;;;20.51;100.00
73516;BME280;61763;51.416;5.442;2023-07-20T08:03:09;101455.78;;;20.50;100.00
73516;BME280;61763;51.416;5.442;2023-07-20T08:05:35;101447.31;;;19.96;100.00
73516;BME280;61763;51.416;5.442;2023-07-20T08:08:04;101448.94;;;20.21;100.00
73516;BME280;61763;51.416;5.442;2023-07-20T08:10:31;101455.03;;;20.70;100.00
73516;BME280;61763;51.416;5.442;2023-07-20T08:12:56;101457.44;;;21.17;100.00
73516;BME280;61763;51.416;5.442;2023-07-20T08:15:22;101455.91;;;21.03;100.00
73516;BME280;61763;51.416;5.442;2023-07-20T08:17:47;101459.88;;;20.67;100.00
73516;BME280;61763;51.416;5.442;2023-07-20T08:20:14;101454.06;;;20.26;100.00
73516;BME280;61763;51.416;5.442;2023-07-20T08:22:41;101463.50;;;20.44;100.00
73516;BME280;61763;51.416;5.442;2023-07-20T08:25:07;101468.28;;;20.86;100.00
73516;BME280;61763;51.416;5.442;2023-07-20T08:27:33;101463.34;;;21.12;100.00
73516;BME280;61763;51.416;5.442;2023-07-20T08:29:59;101460.66;;;21.33;100.00
73516;BME280;61763;51.416;5.442;2023-07-20T08:32:25;101463.06;;;21.15;100.00
73516;BME280;61763;51.416;5.442;2023-07-20T08:34:50;101459.00;;;21.63;100.00
73516;BME280;61763;51.416;5.442;2023-07-20T08:37:16;101459.25;;;21.07;100.00
73516;BME280;61763;51.416;5.442;2023-07-20T08:39:41;101456.84;;;21.13;100.00
73516;BME280;61763;51.416;5.442;2023-07-20T08:42:06;101453.75;;;20.74;100.00
73516;BME280;61763;51.416;5.442;2023-07-20T08:44:33;101444.69;;;20.28;100.00
73516;BME280;61763;51.416;5.442;2023-07-20T08:47:03;101445.78;;;19.69;100.00
73516;BME280;61763;51.416;5.442;2023-07-20T08:49:31;101449.22;;;20.07;100.00
73516;BME280;61763;51.416;5.442;2023-07-20T08:51:57;101457.19;;;20.10;100.00
73516;BME280;61763;51.416;5.442;2023-07-20T08:54:29;101452.78;;;20.53;100.00
73516;BME280;61763;51.416;5.442;2023-07-20T08:57:01;101446.84;;;21.24;100.00
73516;BME280;61763;51.416;5.442;2023-07-20T08:59:29;101440.00;;;21.39;100.00
73516;BME280;61763;51.416;5.442;2023-07-20T09:01:56;101449.81;;;22.05;100.00
73516;BME280;61763;51.416;5.442;2023-07-20T09:04:22;101444.25;;;22.67;100.00
73516;BME280;61763;51.416;5.442;2023-07-20T09:06:49;101446.00;;;22.68;100.00
73516;BME280;61763;51.416;5.442;2023-07-20T09:09:14;101448.53;;;22.09;100.00
73516;BME280;61763;51.416;5.442;2023-07-20T09:11:40;101444.53;;;22.13;100.00
73516;BME280;61763;51.416;5.442;2023-07-20T09:14:07;101440.31;;;22.40;98.27
73516;BME280;61763;51.416;5.442;2023-07-20T09:16:32;101435.63;;;22.00;100.00
73516;BME280;61763;51.416;5.442;2023-07-20T09:18:58;101434.09;;;22.07;97.11
73516;BME280;61763;51.416;5.442;2023-07-20T09:21:28;101430.78;;;22.64;88.28
73516;BME280;61763;51.416;5.442;2023-07-20T09:23:56;101435.78;;;23.19;86.11
73516;BME280;61763;51.416;5.442;2023-07-20T09:26:22;101433.47;;;23.14;84.46
73516;BME280;61763;51.416;5.442;2023-07-20T09:28:49;101436.09;;;23.92;73.37
73516;BME280;61763;51.416;5.442;2023-07-20T09:31:22;101433.69;;;24.17;67.86
73516;BME280;61763;51.416;5.442;2023-07-20T09:33:48;101431.19;;;23.96;74.77
73516;BME280;61763;51.416;5.442;2023-07-20T09:36:14;101423.63;;;24.54;69.80
73516;BME280;61763;51.416;5.442;2023-07-20T09:38:41;101425.78;;;24.32;74.45
73516;BME280;61763;51.416;5.442;2023-07-20T09:41:17;101430.41;;;23.17;77.71
73516;BME280;61763;51.416;5.442;2023-07-20T09:43:46;101423.50;;;23.13;85.92
73516;BME280;61763;51.416;5.442;2023-07-20T09:46:12;101420.59;;;23.15;71.94
73516;BME280;61763;51.416;5.442;2023-07-20T09:48:39;101420.09;;;24.34;70.07
73516;BME280;61763;51.416;5.442;2023-07-20T09:51:05;101412.31;;;24.75;65.38
73516;BME280;61763;51.416;5.442;2023-07-20T09:53:33;101411.78;;;24.43;68.62
73516;BME280;61763;51.416;5.442;2023-07-20T09:55:59;101405.88;;;24.10;69.08
73516;BME280;61763;51.416;5.442;2023-07-20T09:58:28;101411.56;;;23.52;72.57
73516;BME280;61763;51.416;5.442;2023-07-20T10:00:57;101412.88;;;23.95;70.63
73516;BME280;61763;51.416;5.442;2023-07-20T10:03:28;101411.25;;;23.65;72.10
73516;BME280;61763;51.416;5.442;2023-07-20T10:05:57;101411.72;;;23.98;71.47
73516;BME280;61763;51.416;5.442;2023-07-20T10:08:25;101411.56;;;24.55;67.99
73516;BME280;61763;51.416;5.442;2023-07-20T10:10:50;101418.97;;;25.36;64.52
73516;BME280;61763;51.416;5.442;2023-07-20T10:13:25;101400.81;;;25.33;62.34
73516;BME280;61763;51.416;5.442;2023-07-20T10:15:54;101418.63;;;24.85;63.63
73516;BME280;61763;51.416;5.442;2023-07-20T10:21:06;101412.44;;;24.27;66.61
73516;BME280;61763;51.416;5.442;2023-07-20T10:23:33;101405.38;;;23.87;68.63
73516;BME280;61763;51.416;5.442;2023-07-20T10:26:00;101407.03;;;24.36;67.34
73516;BME280;61763;51.416;5.442;2023-07-20T10:28:27;101400.22;;;24.58;65.79
73516;BME280;61763;51.416;5.442;2023-07-20T10:30:53;101393.16;;;24.27;68.87
73516;BME280;61763;51.416;5.442;2023-07-20T10:33:19;101388.66;;;24.26;69.08
73516;BME280;61763;51.416;5.442;2023-07-20T10:35:55;101393.28;;;24.54;61.73
73516;BME280;61763;51.416;5.442;2023-07-20T10:38:42;101393.97;;;24.10;67.43
73516;BME280;61763;51.416;5.442;2023-07-20T10:41:17;101386.97;;;24.16;66.77
73516;BME280;61763;51.416;5.442;2023-07-20T10:43:44;101390.06;;;23.55;69.33
73516;BME280;61763;51.416;5.442;2023-07-20T10:46:11;101393.13;;;23.62;70.60
73516;BME280;61763;51.416;5.442;2023-07-20T10:49:04;101386.44;;;23.65;64.09
73516;BME280;61763;51.416;5.442;2023-07-20T10:51:30;101384.56;;;23.55;68.03
73516;BME280;61763;51.416;5.442;2023-07-20T10:53:57;101383.72;;;23.45;67.27
73516;BME280;61763;51.416;5.442;2023-07-20T10:56:26;101376.84;;;23.12;71.03
73516;BME280;61763;51.416;5.442;2023-07-20T10:58:58;101371.72;;;23.07;68.90
73516;BME280;61763;51.416;5.442;2023-07-20T11:01:35;101379.53;;;22.53;72.76
73516;BME280;61763;51.416;5.442;2023-07-20T11:04:08;101386.63;;;22.46;77.40
73516;BME280;61763;51.416;5.442;2023-07-20T11:06:33;101383.50;;;22.89;80.62
73516;BME280;61763;51.416;5.442;2023-07-20T11:11:40;101380.44;;;23.12;73.73
73516;BME280;61763;51.416;5.442;2023-07-20T11:14:25;101380.72;;;23.38;73.87
73516;BME280;61763;51.416;5.442;2023-07-20T11:16:52;101373.69;;;23.64;68.11
73516;BME280;61763;51.416;5.442;2023-07-20T11:19:18;101370.03;;;24.10;74.84
73516;BME280;61763;51.416;5.442;2023-07-20T11:21:50;101364.66;;;24.55;67.14
73516;BME280;61763;51.416;5.442;2023-07-20T11:24:17;101366.50;;;24.82;64.47
73516;BME280;61763;51.416;5.442;2023-07-20T11:26:44;101361.25;;;24.89;65.63
73516;BME280;61763;51.416;5.442;2023-07-20T11:29:11;101361.00;;;24.64;65.93
73516;BME280;61763;51.416;5.442;2023-07-20T11:31:41;101359.41;;;24.34;67.80
73516;BME280;61763;51.416;5.442;2023-07-20T11:34:15;101361.13;;;23.32;68.33
73516;BME280;61763;51.416;5.442;2023-07-20T11:36:41;101357.94;;;23.36;68.84
73516;BME280;61763;51.416;5.442;2023-07-20T11:39:10;101364.63;;;23.34;72.38
73516;BME280;61763;51.416;5.442;2023-07-20T11:41:36;101364.34;;;23.17;78.11
73516;BME280;61763;51.416;5.442;2023-07-20T11:44:02;101350.66;;;23.45;75.55
73516;BME280;61763;51.416;5.442;2023-07-20T11:46:29;101355.97;;;24.04;68.36
73516;BME280;61763;51.416;5.442;2023-07-20T11:49:00;101355.88;;;24.87;67.15
73516;BME280;61763;51.416;5.442;2023-07-20T11:51:29;101353.31;;;25.91;62.60
73516;BME280;61763;51.416;5.442;2023-07-20T11:53:56;101355.91;;;26.27;59.77
73516;BME280;61763;51.416;5.442;2023-07-20T11:56:24;101357.25;;;26.14;57.05
73516;BME280;61763;51.416;5.442;2023-07-20T11:58:50;101349.31;;;25.85;58.40
73516;BME280;61763;51.416;5.442;2023-07-20T12:01:17;101349.13;;;26.13;56.96
73516;BME280;61763;51.416;5.442;2023-07-20T12:03:43;101343.56;;;26.04;57.14
73516;BME280;61763;51.416;5.442;2023-07-20T12:06:09;101344.00;;;26.34;56.74
73516;BME280;61763;51.416;5.442;2023-07-20T12:08:38;101342.09;;;26.27;56.74
73516;BME280;61763;51.416;5.442;2023-07-20T12:11:06;101348.22;;;25.69;54.78
73516;BME280;61763;51.416;5.442;2023-07-20T12:13:50;101341.28;;;26.00;57.33
73516;BME280;61763;51.416;5.442;2023-07-20T12:16:16;101338.47;;;25.92;55.85
73516;BME280;61763;51.416;5.442;2023-07-20T12:18:44;101341.59;;;25.62;56.12
73516;BME280;61763;51.416;5.442;2023-07-20T12:21:11;101340.44;;;25.21;57.25
73516;BME280;61763;51.416;5.442;2023-07-20T12:23:40;101329.81;;;25.08;59.42
73516;BME280;61763;51.416;5.442;2023-07-20T12:26:09;101334.56;;;24.97;57.08
73516;BME280;61763;51.416;5.442;2023-07-20T12:28:39;101346.09;;;24.75;60.50
73516;BME280;61763;51.416;5.442;2023-07-20T12:31:09;101346.88;;;24.21;64.73
73516;BME280;61763;51.416;5.442;2023-07-20T12:33:36;101345.13;;;24.20;63.66
73516;BME280;61763;51.416;5.442;2023-07-20T12:36:02;101341.13;;;24.14;65.20
73516;BME280;61763;51.416;5.442;2023-07-20T12:38:27;101344.91;;;23.86;63.23
73516;BME280;61763;51.416;5.442;2023-07-20T12:40:53;101342.16;;;23.86;65.46
73516;BME280;61763;51.416;5.442;2023-07-20T12:43:22;101340.78;;;23.52;70.53
73516;BME280;61763;51.416;5.442;2023-07-20T12:45:47;101345.22;;;22.96;73.12
73516;BME280;61763;51.416;5.442;2023-07-20T12:48:13;101333.34;;;22.86;72.68
73516;BME280;61763;51.416;5.442;2023-07-20T12:50:39;101331.75;;;23.13;72.44
73516;BME280;61763;51.416;5.442;2023-07-20T12:53:04;101343.66;;;22.84;74.04
73516;BME280;61763;51.416;5.442;2023-07-20T12:55:29;101338.31;;;23.12;74.61
73516;BME280;61763;51.416;5.442;2023-07-20T12:57:55;101333.13;;;23.46;71.23